»·PEaware :: N664NT KJFK-KEWR

N664NT :: KJFK-KEWR

FLIGHT INFORMATION

Flight Status: Arrived
Operator: Privately registered:
United States
More flights under this callsign
Pilot: Anonymous 328 (328)
Aircraft: Unknown
(GA7C)
More flights by this aircraft type
Origin: KJFK Kennedy Intl
United States
Destination: KEWR Newark Intl
United States
More flights between these airports :: More routes between these airports
Route: JFK5 JFK V16 DIXIE V276 RBV V249 SBJ
File this flight plan on PilotEdge
Remarks:
Altitude:
(Current/Filed)
6,000ft
Speed:
(Current/Filed)
0kts
Departed: 14-Nov-22 05:28 AM
Arrived: 14-Nov-22 06:28 AM
Distance/Time
Traveled:
18nm/1:00
Distance/Time
To Go:
Arrived

Flight Plot

Page will automatically refresh every two minutes.

Flight plan parsing failed; only flown route is shown


Map Options




Map Legend


Flown Route
Filed Route
Departure Airport
Arrival Airport
Navaid (VOR, NDB)
Fix

Horizontal Profiles

Position Reports

Time Latitude Longitude Heading Altitude Ground
Speed
14-Nov-22 04:09 40.650547 -73.811073 230 20ft 0kts
14-Nov-22 04:10 40.650547 -73.811073 230 20ft 0kts
14-Nov-22 04:11 40.650547 -73.811073 230 20ft 0kts
14-Nov-22 04:12 40.650547 -73.811073 230 20ft 0kts
14-Nov-22 04:13 40.650547 -73.811073 230 20ft 0kts
14-Nov-22 04:14 40.650547 -73.811073 230 20ft 0kts
14-Nov-22 04:15 40.650547 -73.811073 230 20ft 0kts
14-Nov-22 04:16 40.650547 -73.811073 230 20ft 0kts
14-Nov-22 04:17 40.650547 -73.811073 230 20ft 0kts
14-Nov-22 04:18 40.650547 -73.811073 230 20ft 0kts
14-Nov-22 04:19 40.650547 -73.811073 230 20ft 0kts
14-Nov-22 04:20 40.650547 -73.811073 230 20ft 0kts
14-Nov-22 04:21 40.650547 -73.811073 230 20ft 0kts
14-Nov-22 04:22 40.650547 -73.811073 230 20ft 0kts
14-Nov-22 04:23 40.650547 -73.811073 230 20ft 0kts
14-Nov-22 04:24 40.650547 -73.811073 230 20ft 0kts
14-Nov-22 04:25 40.650547 -73.811073 230 20ft 0kts
14-Nov-22 04:26 40.650547 -73.811073 230 20ft 0kts
14-Nov-22 04:27 40.650547 -73.811073 230 20ft 0kts
14-Nov-22 04:28 40.650547 -73.811073 230 20ft 0kts
14-Nov-22 04:29 40.650547 -73.811073 230 20ft 0kts
14-Nov-22 04:30 40.650547 -73.811073 230 20ft 0kts
14-Nov-22 04:31 40.650547 -73.811073 230 20ft 0kts
14-Nov-22 04:32 40.650547 -73.811073 230 20ft 0kts
14-Nov-22 04:33 40.650547 -73.811073 230 20ft 0kts
14-Nov-22 04:34 40.650547 -73.811073 230 20ft 0kts
14-Nov-22 04:35 40.650547 -73.811073 230 20ft 0kts
14-Nov-22 04:36 40.650547 -73.811073 230 20ft 0kts
14-Nov-22 04:37 40.650547 -73.811073 230 20ft 0kts
14-Nov-22 04:38 40.650547 -73.811073 230 20ft 0kts
14-Nov-22 04:39 40.650547 -73.811073 230 20ft 0kts
14-Nov-22 04:40 40.650547 -73.811073 230 20ft 0kts
14-Nov-22 04:41 40.650547 -73.811073 230 20ft 0kts
14-Nov-22 04:42 40.650547 -73.811073 230 20ft 0kts
14-Nov-22 04:43 40.650547 -73.811073 230 20ft 0kts
14-Nov-22 04:44 40.650547 -73.811073 230 20ft 0kts
14-Nov-22 04:45 40.650547 -73.811073 230 20ft 0kts
14-Nov-22 04:46 40.650547 -73.811073 230 20ft 0kts
14-Nov-22 04:47 40.650547 -73.811073 230 20ft 0kts
14-Nov-22 04:48 40.650547 -73.811073 230 20ft 0kts
14-Nov-22 04:49 40.650547 -73.811073 230 20ft 0kts
14-Nov-22 04:50 40.650547 -73.811073 230 20ft 0kts
14-Nov-22 04:51 40.650547 -73.811073 230 20ft 0kts
14-Nov-22 04:52 40.650547 -73.811073 230 20ft 0kts
14-Nov-22 04:53 40.650547 -73.811073 230 20ft 0kts
14-Nov-22 04:54 40.650547 -73.811073 230 20ft 0kts
14-Nov-22 04:55 40.650547 -73.811073 230 20ft 0kts
14-Nov-22 04:56 40.650547 -73.811073 230 20ft 0kts
14-Nov-22 04:57 40.650547 -73.811073 230 20ft 0kts
14-Nov-22 04:58 40.650547 -73.811073 230 20ft 0kts
14-Nov-22 04:59 40.650547 -73.811073 230 20ft 0kts
14-Nov-22 05:00 40.650547 -73.811073 230 20ft 0kts
14-Nov-22 05:01 40.650547 -73.811073 230 20ft 0kts
14-Nov-22 05:02 40.650547 -73.811073 230 20ft 0kts
14-Nov-22 05:03 40.650547 -73.811073 230 20ft 0kts
14-Nov-22 05:04 40.650547 -73.811073 230 20ft 0kts
14-Nov-22 05:05 40.650547 -73.811073 230 20ft 0kts
14-Nov-22 05:06 40.650547 -73.811073 230 20ft 0kts
14-Nov-22 05:07 40.650547 -73.811073 230 20ft 0kts
14-Nov-22 05:08 40.650547 -73.811073 230 20ft 0kts
14-Nov-22 05:09 40.650547 -73.811073 230 20ft 0kts
14-Nov-22 05:10 40.650547 -73.811073 230 20ft 0kts
14-Nov-22 05:11 40.650547 -73.811073 230 20ft 0kts
14-Nov-22 05:12 40.650547 -73.811073 230 20ft 0kts
14-Nov-22 05:13 40.650547 -73.811073 230 20ft 0kts
14-Nov-22 05:14 40.650547 -73.811073 230 20ft 0kts
14-Nov-22 05:15 40.650547 -73.811073 230 20ft 0kts
14-Nov-22 05:16 40.650547 -73.811073 230 20ft 0kts
14-Nov-22 05:17 40.650547 -73.811073 230 20ft 0kts
14-Nov-22 05:18 40.650547 -73.811073 230 20ft 0kts
14-Nov-22 05:19 40.650547 -73.811073 230 20ft 0kts
14-Nov-22 05:20 40.650547 -73.811073 230 20ft 0kts
14-Nov-22 05:21 40.650547 -73.811073 230 20ft 0kts
14-Nov-22 05:22 40.650547 -73.811073 230 20ft 0kts
14-Nov-22 05:23 40.650547 -73.811073 230 20ft 0kts
14-Nov-22 05:24 40.649727 -73.811829 211 20ft 1kts
14-Nov-22 05:25 40.649769 -73.813858 300 20ft 11kts
14-Nov-22 05:26 40.649532 -73.815582 210 21ft 7kts
14-Nov-22 05:27 40.647655 -73.815170 121 21ft 53kts
14-Nov-22 05:28 40.621910 -73.759384 121 3157ft 221kts
14-Nov-22 05:29 40.578964 -73.687004 161 5581ft 269kts
14-Nov-22 05:30 40.508240 -73.676300 208 5972ft 272kts
14-Nov-22 05:31 40.462368 -73.753914 238 5984ft 271kts
14-Nov-22 05:32 40.421181 -73.837524 236 6001ft 272kts
14-Nov-22 05:33 40.379776 -73.920906 236 6001ft 272kts
14-Nov-22 05:34 40.328487 -73.991837 214 6002ft 272kts
14-Nov-22 05:35 40.263565 -74.043098 209 6005ft 272kts
14-Nov-22 05:36 40.197762 -74.091736 209 6006ft 272kts
14-Nov-22 05:37 40.132187 -74.141563 210 6007ft 272kts
14-Nov-22 05:38 40.118870 -74.227608 293 6005ft 272kts
14-Nov-22 05:39 40.147598 -74.319016 292 6001ft 272kts
14-Nov-22 05:40 40.176220 -74.410881 292 6001ft 272kts
14-Nov-22 05:41 40.207996 -74.500175 312 6003ft 272kts
14-Nov-22 05:42 40.265762 -74.564392 320 6002ft 272kts
14-Nov-22 05:43 40.325157 -74.625229 334 5793ft 271kts
14-Nov-22 05:44 40.396011 -74.657608 341 5004ft 268kts
14-Nov-22 05:45 40.466740 -74.689392 341 5003ft 268kts
14-Nov-22 05:46 40.537407 -74.720184 353 4924ft 268kts
14-Nov-22 05:47 40.574379 -74.656052 110 3457ft 262kts
14-Nov-22 05:48 40.544971 -74.571312 114 3001ft 250kts
14-Nov-22 05:49 40.516026 -74.488182 114 3000ft 250kts
14-Nov-22 05:50 40.488140 -74.404305 99 2986ft 246kts
14-Nov-22 05:51 40.503483 -74.325699 71 2999ft 219kts
14-Nov-22 05:52 40.534271 -74.265343 24 3007ft 187kts
14-Nov-22 05:53 40.577866 -74.237976 25 2205ft 166kts
14-Nov-22 05:54 40.615803 -74.213760 25 1409ft 132kts
14-Nov-22 05:55 40.648872 -74.192635 26 720ft 131kts
14-Nov-22 05:56 40.683613 -74.170380 25 882ft 161kts
14-Nov-22 05:57 40.719723 -74.122513 46 2469ft 207kts
14-Nov-22 05:58 40.769478 -74.088066 13 2998ft 208kts
14-Nov-22 05:59 40.819912 -74.099808 296 3011ft 208kts
14-Nov-22 06:00 40.846172 -74.168327 296 3000ft 208kts
14-Nov-22 06:01 40.820877 -74.223640 206 3004ft 208kts
14-Nov-22 06:02 40.769196 -74.258293 207 3000ft 208kts
14-Nov-22 06:03 40.717388 -74.293137 206 3000ft 208kts
14-Nov-22 06:04 40.665771 -74.327888 207 3001ft 208kts
14-Nov-22 06:05 40.612312 -74.363892 207 3001ft 219kts
14-Nov-22 06:06 40.558701 -74.367325 118 3003ft 219kts
14-Nov-22 06:07 40.542465 -74.299393 94 2995ft 187kts
14-Nov-22 06:08 40.569630 -74.244041 27 1843ft 183kts
14-Nov-22 06:09 40.613022 -74.215553 25 1475ft 141kts
14-Nov-22 06:10 40.646286 -74.194290 25 776ft 131kts
14-Nov-22 06:11 40.679035 -74.173386 25 95ft 130kts
14-Nov-22 06:12 40.713413 -74.148453 44 1428ft 138kts
14-Nov-22 06:13 40.753124 -74.097450 30 2516ft 228kts
14-Nov-22 06:14 40.798553 -74.118156 296 2996ft 208kts
14-Nov-22 06:15 40.823578 -74.187050 276 2995ft 209kts
14-Nov-22 06:16 40.783825 -74.235054 206 3003ft 208kts
14-Nov-22 06:17 40.732162 -74.269737 207 3001ft 208kts
14-Nov-22 06:18 40.679111 -74.305389 207 3001ft 219kts
14-Nov-22 06:19 40.624744 -74.341972 207 3002ft 219kts
14-Nov-22 06:20 40.570576 -74.378448 207 3002ft 219kts
14-Nov-22 06:21 40.519173 -74.373611 106 3005ft 219kts
14-Nov-22 06:22 40.529991 -74.295471 61 2992ft 219kts
14-Nov-22 06:23 40.572666 -74.242203 29 1811ft 203kts
14-Nov-22 06:24 40.618347 -74.211685 25 1412ft 165kts
14-Nov-22 06:25 40.653427 -74.189499 25 660ft 131kts
14-Nov-22 06:26 40.686066 -74.168846 25 19ft 116kts
14-Nov-22 06:27 40.695225 -74.163406 336 19ft 8kts
14-Nov-22 06:28 40.695972 -74.164948 295 19ft 6kts
14-Nov-22 06:29 40.696766 -74.167099 293 19ft 3kts
14-Nov-22 06:30 40.695343 -74.168327 205 19ft 6kts

Navigation Log

Ident Type
Flight plan parsing failed, navigation log unavailable